createdAt,value
2018-11-10T00:00:37.001Z,98544.49
2018-11-10T00:03:06.545Z,98535.86
2018-11-10T00:05:36.024Z,98537.05
2018-11-10T00:08:05.194Z,98527.05
2018-11-10T00:10:34.536Z,98531.98
2018-11-10T00:13:03.957Z,98529.08
2018-11-10T00:15:32.976Z,98531.56
2018-11-10T00:18:02.817Z,98524.22
2018-11-10T00:20:32.025Z,98519.52
2018-11-10T00:23:02.002Z,98523.48
2018-11-10T00:25:31.639Z,98523.88
2018-11-10T00:28:00.987Z,98527.36
2018-11-10T00:30:30.658Z,98516.88
2018-11-10T00:33:03.746Z,98514.22
2018-11-10T00:35:33.314Z,98509.13
2018-11-10T00:38:02.220Z,98488.30
2018-11-10T00:40:30.885Z,98478.69
2018-11-10T00:43:00.301Z,98479.78
2018-11-10T00:45:29.519Z,98481.51
2018-11-10T00:47:58.717Z,98489.80
2018-11-10T00:50:29.158Z,98495.03
2018-11-10T00:52:58.879Z,98484.28
2018-11-10T00:55:28.568Z,98488.56
2018-11-10T00:57:57.760Z,98479.06
2018-11-10T01:00:27.539Z,98479.46
2018-11-10T01:02:57.209Z,98482.31
2018-11-10T01:05:27.186Z,98486.45
2018-11-10T01:07:56.613Z,98480.52
2018-11-10T01:10:25.852Z,98476.19
2018-11-10T01:12:55.941Z,98471.44
2018-11-10T01:15:24.909Z,98475.98
2018-11-10T01:17:54.218Z,98484.22
2018-11-10T01:20:23.734Z,98484.66
2018-11-10T01:22:52.921Z,98484.87
2018-11-10T01:25:22.536Z,98488.05
2018-11-10T01:27:55.193Z,98481.01
2018-11-10T01:30:26.469Z,98493.72
2018-11-10T01:32:55.833Z,98487.92
2018-11-10T01:35:25.033Z,98484.02
2018-11-10T01:37:54.284Z,98470.45
2018-11-10T01:40:23.548Z,98481.01
2018-11-10T01:42:52.753Z,98481.22
2018-11-10T01:45:22.264Z,98481.59
2018-11-10T01:47:51.822Z,98471.91
2018-11-10T01:50:20.443Z,98473.59
2018-11-10T01:52:49.340Z,98469.51
2018-11-10T01:55:19.254Z,98463.03
2018-11-10T01:57:48.526Z,98453.52
2018-11-10T02:00:19.258Z,98446.19
2018-11-10T02:02:49.459Z,98445.81
2018-11-10T02:05:18.778Z,98436.53
2018-11-10T02:07:48.484Z,98428.45
2018-11-10T02:10:18.328Z,98430.70
2018-11-10T02:12:48.265Z,98439.09
2018-11-10T02:15:18.377Z,98446.40
2018-11-10T02:17:47.880Z,98436.72
2018-11-10T02:20:17.251Z,98442.00
2018-11-10T02:22:46.270Z,98435.58
2018-11-10T02:25:16.225Z,98420.96
2018-11-10T02:27:45.547Z,98416.83
2018-11-10T02:30:15.155Z,98411.55
2018-11-10T02:32:44.530Z,98422.28
2018-11-10T02:35:13.810Z,98420.09
2018-11-10T02:37:42.944Z,98415.91
2018-11-10T02:40:19.221Z,98410.93
2018-11-10T02:42:51.277Z,98407.48
2018-11-10T02:45:33.889Z,98416.36
2018-11-10T02:48:11.773Z,98426.20
2018-11-10T02:50:46.647Z,98428.78
2018-11-10T02:53:19.887Z,98427.24
2018-11-10T02:55:54.575Z,98418.27
2018-11-10T02:58:24.493Z,98409.64
2018-11-10T03:00:53.573Z,98410.45
2018-11-10T03:03:23.639Z,98405.06
2018-11-10T03:05:52.720Z,98409.91
2018-11-10T03:08:21.955Z,98404.37
2018-11-10T03:10:51.483Z,98398.20
2018-11-10T03:13:26.241Z,98400.27
2018-11-10T03:16:04.732Z,98399.09
2018-11-10T03:18:41.489Z,98394.55
2018-11-10T03:23:59.766Z,98381.20
2018-11-10T03:26:32.695Z,98379.41
2018-11-10T03:29:06.235Z,98372.08
2018-11-10T03:31:40.701Z,98375.66
2018-11-10T03:34:16.301Z,98370.21
2018-11-10T03:36:51.825Z,98375.59
2018-11-10T03:39:24.334Z,98367.38
2018-11-10T03:41:59.913Z,98366.58
2018-11-10T03:44:40.128Z,98362.47
2018-11-10T03:47:14.564Z,98355.88
2018-11-10T03:49:46.683Z,98343.16
2018-11-10T03:52:22.432Z,98343.55
2018-11-10T03:54:59.575Z,98349.20
2018-11-10T03:57:37.356Z,98352.11
2018-11-10T04:00:14.692Z,98361.48
2018-11-10T04:02:49.326Z,98360.89
2018-11-10T04:05:22.971Z,98355.13
2018-11-10T04:07:58.039Z,98340.65
2018-11-10T04:10:37.599Z,98338.19
2018-11-10T04:13:11.991Z,98314.81
2018-11-10T04:15:48.573Z,98300.70
2018-11-10T04:18:23.208Z,98309.95
2018-11-10T04:23:39.998Z,98315.84
2018-11-10T04:26:13.245Z,98315.81
2018-11-10T04:28:52.267Z,98327.41
2018-11-10T04:31:28.537Z,98324.11
2018-11-10T04:34:06.835Z,98308.53
2018-11-10T04:36:39.014Z,98310.64
2018-11-10T04:39:13.043Z,98316.55
2018-11-10T04:41:53.621Z,98299.04
2018-11-10T04:44:29.860Z,98289.88
2018-11-10T04:47:11.161Z,98291.20
2018-11-10T04:49:48.743Z,98285.92
2018-11-10T04:52:25.480Z,98294.45
2018-11-10T04:55:04.359Z,98284.67
2018-11-10T04:57:40.740Z,98301.14
2018-11-10T05:00:17.627Z,98289.99
2018-11-10T05:02:52.757Z,98285.92
2018-11-10T05:05:28.549Z,98281.34
2018-11-10T05:07:57.837Z,98288.17
2018-11-10T05:10:27.523Z,98317.03
2018-11-10T05:12:57.713Z,98335.21
2018-11-10T05:15:27.191Z,98345.25
2018-11-10T05:17:57.435Z,98354.27
2018-11-10T05:20:26.660Z,98351.16
2018-11-10T05:22:55.616Z,98349.72
2018-11-10T05:25:24.795Z,98337.08
2018-11-10T05:27:53.983Z,98348.63
2018-11-10T05:30:29.725Z,98347.30
2018-11-10T05:33:13.329Z,98363.13
2018-11-10T05:35:49.276Z,98353.75
2018-11-10T05:38:20.938Z,98336.02
2018-11-10T05:40:56.825Z,98339.49
2018-11-10T05:43:29.390Z,98319.56
2018-11-10T05:46:05.071Z,98320.70
2018-11-10T05:48:38.798Z,98308.77
2018-11-10T05:51:07.829Z,98306.84
2018-11-10T05:53:37.480Z,98329.75
2018-11-10T05:56:07.977Z,98330.05
2018-11-10T05:58:37.321Z,98327.52
2018-11-10T06:01:06.920Z,98338.98
2018-11-10T06:03:36.845Z,98322.25
2018-11-10T06:06:06.040Z,98322.83
2018-11-10T06:08:35.391Z,98316.72
2018-11-10T06:11:04.390Z,98311.00
2018-11-10T06:13:34.108Z,98315.14
2018-11-10T06:16:03.030Z,98323.78
2018-11-10T06:18:32.062Z,98325.58
2018-11-10T06:21:02.088Z,98337.33
2018-11-10T06:23:31.401Z,98345.86
2018-11-10T06:26:00.630Z,98358.44
2018-11-10T06:28:29.469Z,98355.58
2018-11-10T06:30:59.295Z,98350.20
2018-11-10T06:33:28.825Z,98400.20
2018-11-10T06:35:58.745Z,98382.98
2018-11-10T06:38:27.344Z,98373.59
2018-11-10T06:40:56.820Z,98372.36
2018-11-10T06:43:26.192Z,98362.55
2018-11-10T06:45:55.237Z,98362.79
2018-11-10T06:48:24.974Z,98357.48
2018-11-10T06:50:54.953Z,98349.50
2018-11-10T06:53:24.000Z,98336.12
2018-11-10T06:55:53.344Z,98342.02
2018-11-10T06:58:24.457Z,98333.16
2018-11-10T07:00:53.563Z,98336.55
2018-11-10T07:03:22.627Z,98327.55
2018-11-10T07:05:51.403Z,98340.00
2018-11-10T07:08:20.008Z,98349.13
2018-11-10T07:10:49.187Z,98337.13
2018-11-10T07:13:19.465Z,98333.96
2018-11-10T07:15:48.261Z,98325.73
2018-11-10T07:18:26.706Z,98306.31
2018-11-10T07:21:09.373Z,98311.80
2018-11-10T07:23:44.281Z,98304.26
2018-11-10T07:26:17.384Z,98302.46
2018-11-10T07:28:53.228Z,98294.07
2018-11-10T07:31:30.020Z,98272.59
2018-11-10T07:34:07.775Z,98285.73
2018-11-10T07:36:40.899Z,98288.38
2018-11-10T07:39:15.505Z,98304.34
2018-11-10T07:41:57.948Z,98291.70
2018-11-10T07:44:31.663Z,98300.28
2018-11-10T07:47:06.032Z,98292.36
2018-11-10T07:49:40.162Z,98291.70
2018-11-10T07:52:14.076Z,98300.94
2018-11-10T07:54:53.564Z,98301.30
2018-11-10T07:57:34.683Z,98294.47
2018-11-10T08:02:58.685Z,98306.12
2018-11-10T08:05:32.017Z,98296.80
2018-11-10T08:08:04.577Z,98299.13
2018-11-10T08:10:40.322Z,98294.89
2018-11-10T08:13:12.362Z,98285.23
2018-11-10T08:15:48.056Z,98292.88
2018-11-10T08:21:01.918Z,98294.93
2018-11-10T08:23:45.149Z,98293.58
2018-11-10T08:26:31.113Z,98309.89
2018-11-10T08:29:10.595Z,98303.13
2018-11-10T08:31:40.510Z,98305.83
2018-11-10T08:34:11.315Z,98302.09
2018-11-10T08:36:45.111Z,98306.19
2018-11-10T08:39:15.441Z,98305.97
2018-11-10T08:41:50.329Z,98305.66
2018-11-10T08:44:24.445Z,98293.47
2018-11-10T08:47:04.813Z,98294.40
2018-11-10T08:49:38.380Z,98303.52
2018-11-10T08:52:14.958Z,98300.88
2018-11-10T08:54:52.978Z,98304.37
2018-11-10T08:57:22.318Z,98306.81
2018-11-10T08:59:52.830Z,98296.39
2018-11-10T09:02:24.139Z,98308.61
2018-11-10T09:07:43.628Z,98305.34
2018-11-10T09:10:16.446Z,98314.45
2018-11-10T09:12:57.215Z,98315.31
2018-11-10T09:15:38.349Z,98313.38
2018-11-10T09:18:29.401Z,98306.78
2018-11-10T09:21:09.980Z,98312.48
2018-11-10T09:23:52.176Z,98320.17
2018-11-10T09:26:24.301Z,98305.84
2018-11-10T09:29:04.932Z,98309.45
2018-11-10T09:31:46.886Z,98314.97
2018-11-10T09:34:30.056Z,98331.89
2018-11-10T09:37:16.244Z,98314.60
2018-11-10T09:39:47.537Z,98327.99
2018-11-10T09:42:19.424Z,98323.07
2018-11-10T09:44:53.224Z,98317.73
2018-11-10T09:47:21.811Z,98320.11
2018-11-10T09:49:59.046Z,98318.97
2018-11-10T09:52:42.122Z,98314.05
2018-11-10T09:58:04.467Z,98315.05
2018-11-10T10:00:39.137Z,98317.73
2018-11-10T10:03:22.833Z,98312.63
2018-11-10T10:06:00.582Z,98314.95
2018-11-10T10:08:38.320Z,98309.53
2018-11-10T10:11:12.435Z,98319.13
2018-11-10T10:13:42.777Z,98314.10
2018-11-10T10:16:23.237Z,98314.01
2018-11-10T10:18:57.490Z,98314.70
2018-11-10T10:21:31.168Z,98314.73
2018-11-10T10:24:10.103Z,98309.02
2018-11-10T10:26:54.291Z,98307.45
2018-11-10T10:29:27.822Z,98293.75
2018-11-10T10:32:04.037Z,98295.78
2018-11-10T10:34:37.289Z,98283.29
2018-11-10T10:37:09.233Z,98286.05
2018-11-10T10:39:43.693Z,98275.47
2018-11-10T10:42:23.080Z,98278.37
2018-11-10T10:44:57.970Z,98282.11
2018-11-10T10:47:40.663Z,98281.62
2018-11-10T10:50:22.992Z,98280.88
2018-11-10T10:52:55.779Z,98279.46
2018-11-10T10:55:33.919Z,98280.43
2018-11-10T10:58:06.387Z,98273.09
2018-11-10T11:00:43.081Z,98278.25
2018-11-10T11:03:19.835Z,98262.72
2018-11-10T11:05:59.548Z,98269.33
2018-11-10T11:08:33.032Z,98263.56
2018-11-10T11:11:08.960Z,98271.64
2018-11-10T11:13:41.565Z,98261.87
2018-11-10T11:16:14.867Z,98258.97
2018-11-10T11:18:47.618Z,98252.22
2018-11-10T11:21:23.490Z,98252.45
2018-11-10T11:23:55.469Z,98247.03
2018-11-10T11:26:29.064Z,98241.59
2018-11-10T11:29:05.359Z,98258.21
2018-11-10T11:31:42.389Z,98253.63
2018-11-10T11:34:18.623Z,98252.81
2018-11-10T11:36:54.594Z,98243.38
2018-11-10T11:39:39.081Z,98241.79
2018-11-10T11:42:10.583Z,98241.92
2018-11-10T11:44:44.697Z,98239.40
2018-11-10T11:47:24.060Z,98239.36
2018-11-10T11:50:00.535Z,98243.59
2018-11-10T11:52:35.070Z,98233.84
2018-11-10T11:55:07.343Z,98240.72
2018-11-10T11:57:43.776Z,98239.84
2018-11-10T12:00:28.041Z,98245.14
2018-11-10T12:03:00.264Z,98245.89
2018-11-10T12:05:32.104Z,98235.77
2018-11-10T12:08:08.878Z,98238.69
2018-11-10T12:10:51.876Z,98241.70
2018-11-10T12:13:28.568Z,98246.29
2018-11-10T12:16:05.309Z,98236.97
2018-11-10T12:18:41.259Z,98231.58
2018-11-10T12:21:10.536Z,98226.83
2018-11-10T12:23:47.429Z,98222.02
2018-11-10T12:26:21.418Z,98228.15
2018-11-10T12:29:07.967Z,98231.73
2018-11-10T12:31:41.806Z,98228.85
2018-11-10T12:34:13.827Z,98227.41
2018-11-10T12:36:53.174Z,98233.89
2018-11-10T12:39:27.759Z,98228.34
2018-11-10T12:42:13.663Z,98229.16
2018-11-10T12:44:49.980Z,98223.77
2018-11-10T12:47:25.763Z,98225.91
2018-11-10T12:50:06.114Z,98215.00
2018-11-10T12:52:48.474Z,98221.44
2018-11-10T12:55:17.206Z,98224.36
2018-11-10T12:57:47.651Z,98222.14
2018-11-10T13:00:18.909Z,98217.23
2018-11-10T13:02:54.729Z,98215.57
2018-11-10T13:05:24.138Z,98202.14
2018-11-10T13:07:54.432Z,98205.23
2018-11-10T13:10:26.557Z,98203.69
2018-11-10T13:13:05.796Z,98200.73
2018-11-10T13:15:42.860Z,98190.77
2018-11-10T13:18:15.626Z,98201.78
2018-11-10T13:20:49.681Z,98195.23
2018-11-10T13:26:13.649Z,98186.16
2018-11-10T13:28:53.039Z,98185.44
2018-11-10T13:31:28.903Z,98182.52
2018-11-10T13:34:07.530Z,98190.66
2018-11-10T13:36:39.412Z,98183.84
2018-11-10T13:39:15.078Z,98190.06
2018-11-10T13:41:46.845Z,98187.41
2018-11-10T13:44:23.561Z,98189.55
2018-11-10T13:46:57.716Z,98185.59
2018-11-10T13:49:29.759Z,98190.61
2018-11-10T13:52:03.698Z,98173.48
2018-11-10T13:54:42.657Z,98172.44
2018-11-10T13:57:19.833Z,98170.16
2018-11-10T13:59:53.420Z,98177.63
2018-11-10T14:02:29.368Z,98166.64
2018-11-10T14:05:02.738Z,98150.44
2018-11-10T14:07:47.125Z,98165.97
2018-11-10T14:10:26.121Z,98152.17
2018-11-10T14:13:05.057Z,98148.50
2018-11-10T14:15:39.837Z,98148.20
2018-11-10T14:18:12.068Z,98160.80
2018-11-10T14:20:50.393Z,98169.30
2018-11-10T14:23:27.067Z,98166.94
2018-11-10T14:25:59.842Z,98174.98
2018-11-10T14:31:14.574Z,98164.27
2018-11-10T14:33:46.900Z,98162.61
2018-11-10T14:36:21.160Z,98165.27
2018-11-10T14:38:53.381Z,98159.68
2018-11-10T14:41:25.291Z,98174.69
2018-11-10T14:44:01.201Z,98166.10
2018-11-10T14:46:36.126Z,98164.75
2018-11-10T14:49:11.818Z,98167.43
2018-11-10T14:51:49.396Z,98169.73
2018-11-10T14:54:25.172Z,98172.46
2018-11-10T14:56:56.248Z,98175.72
2018-11-10T14:59:25.155Z,98174.49
2018-11-10T15:04:33.834Z,98175.03
2018-11-10T15:07:17.683Z,98172.71
2018-11-10T15:09:51.897Z,98172.46
2018-11-10T15:12:24.341Z,98173.66
2018-11-10T15:14:55.110Z,98176.85
2018-11-10T15:17:24.299Z,98173.79
2018-11-10T15:19:54.658Z,98172.33
2018-11-10T15:22:25.629Z,98187.14
2018-11-10T15:24:54.897Z,98196.16
2018-11-10T15:27:25.056Z,98186.77
2018-11-10T15:30:02.516Z,98189.46
2018-11-10T15:32:33.822Z,98193.27
2018-11-10T15:35:04.963Z,98203.13
2018-11-10T15:37:42.220Z,98200.23
2018-11-10T15:40:13.315Z,98200.36
2018-11-10T15:42:42.090Z,98200.30
2018-11-10T15:45:12.360Z,98203.02
2018-11-10T15:47:41.794Z,98201.84
2018-11-10T15:50:12.619Z,98199.05
2018-11-10T15:52:44.197Z,98208.83
2018-11-10T15:55:17.340Z,98197.51
2018-11-10T15:57:56.799Z,98198.77
2018-11-10T16:00:30.035Z,98190.76
2018-11-10T16:02:59.787Z,98200.58
2018-11-10T16:05:28.695Z,98198.98
2018-11-10T16:07:58.928Z,98198.28
2018-11-10T16:10:28.275Z,98198.14
2018-11-10T16:12:57.637Z,98193.69
2018-11-10T16:15:27.599Z,98201.77
2018-11-10T16:17:56.987Z,98201.08
2018-11-10T16:20:26.705Z,98193.83
2018-11-10T16:22:55.853Z,98197.37
2018-11-10T16:25:25.217Z,98188.80
2018-11-10T16:27:54.988Z,98194.86
2018-11-10T16:30:24.641Z,98198.12
2018-11-10T16:32:53.466Z,98207.28
2018-11-10T16:35:22.762Z,98204.84
2018-11-10T16:37:51.942Z,98203.30
2018-11-10T16:40:21.397Z,98193.80
2018-11-10T16:42:51.003Z,98190.19
2018-11-10T16:45:21.403Z,98194.64
2018-11-10T16:47:50.816Z,98190.88
2018-11-10T16:50:20.663Z,98192.43
2018-11-10T16:52:50.285Z,98193.66
2018-11-10T16:55:19.692Z,98190.00
2018-11-10T16:57:48.584Z,98197.11
2018-11-10T17:00:25.898Z,98194.58
2018-11-10T17:02:58.857Z,98198.69
2018-11-10T17:05:29.267Z,98186.77
2018-11-10T17:08:00.566Z,98197.32
2018-11-10T17:10:33.370Z,98189.85
2018-11-10T17:13:03.624Z,98197.58
2018-11-10T17:15:39.050Z,98187.67
2018-11-10T17:18:15.421Z,98184.53
2018-11-10T17:20:44.726Z,98183.20
2018-11-10T17:23:23.372Z,98183.70
2018-11-10T17:25:55.379Z,98193.46
2018-11-10T17:28:28.133Z,98187.91
2018-11-10T17:30:58.796Z,98190.41
2018-11-10T17:33:32.697Z,98188.23
2018-11-10T17:36:11.591Z,98191.38
2018-11-10T17:38:43.845Z,98180.99
2018-11-10T17:41:15.201Z,98175.48
2018-11-10T17:43:44.592Z,98168.57
2018-11-10T17:46:13.969Z,98178.61
2018-11-10T17:48:43.216Z,98182.30
2018-11-10T17:51:19.437Z,98176.29
2018-11-10T17:54:01.492Z,98176.38
2018-11-10T17:56:42.522Z,98174.91
2018-11-10T17:59:27.406Z,98172.39
2018-11-10T18:02:12.879Z,98174.48
2018-11-10T18:04:41.981Z,98166.89
2018-11-10T18:07:18.064Z,98176.64
2018-11-10T18:10:05.791Z,98175.75
2018-11-10T18:12:37.052Z,98180.47
2018-11-10T18:15:08.042Z,98175.62
2018-11-10T18:17:48.645Z,98176.84
2018-11-10T18:20:22.440Z,98170.81
2018-11-10T18:22:56.340Z,98179.01
2018-11-10T18:25:26.875Z,98170.81
2018-11-10T18:28:03.155Z,98178.18
2018-11-10T18:30:39.664Z,98178.80
2018-11-10T18:33:09.644Z,98179.80
2018-11-10T18:35:40.534Z,98183.48
2018-11-10T18:38:15.097Z,98179.02
2018-11-10T18:40:49.429Z,98184.05
2018-11-10T18:43:25.221Z,98184.27
2018-11-10T18:45:54.390Z,98186.33
2018-11-10T18:48:24.473Z,98185.59
2018-11-10T18:50:53.289Z,98190.06
2018-11-10T18:53:21.907Z,98183.27
2018-11-10T18:55:54.971Z,98182.42
2018-11-10T18:58:24.527Z,98186.20
2018-11-10T19:00:57.430Z,98183.19
2018-11-10T19:03:31.025Z,98181.59
2018-11-10T19:06:09.072Z,98177.28
2018-11-10T19:08:38.796Z,98171.69
2018-11-10T19:11:12.217Z,98172.11
2018-11-10T19:13:42.222Z,98173.71
2018-11-10T19:16:12.696Z,98173.71
2018-11-10T19:18:46.718Z,98177.23
2018-11-10T19:21:21.484Z,98178.50
2018-11-10T19:23:54.131Z,98164.64
2018-11-10T19:26:35.764Z,98175.55
2018-11-10T19:29:09.814Z,98183.62
2018-11-10T19:31:48.275Z,98182.30
2018-11-10T19:34:18.916Z,98184.43
2018-11-10T19:36:47.713Z,98184.16
2018-11-10T19:39:17.990Z,98175.32
2018-11-10T19:41:46.887Z,98179.66
2018-11-10T19:44:16.966Z,98181.36
2018-11-10T19:46:46.727Z,98170.80
2018-11-10T19:49:15.978Z,98180.31
2018-11-10T19:51:45.790Z,98182.69
2018-11-10T19:54:16.192Z,98185.76
2018-11-10T19:56:46.625Z,98180.40
2018-11-10T19:59:16.188Z,98185.84
2018-11-10T20:01:46.016Z,98182.21
2018-11-10T20:04:15.809Z,98183.89
2018-11-10T20:06:45.685Z,98189.69
2018-11-10T20:09:15.536Z,98191.37
2018-11-10T20:11:45.224Z,98195.97
2018-11-10T20:14:15.049Z,98197.44
2018-11-10T20:16:45.010Z,98192.23
2018-11-10T20:19:15.028Z,98194.81
2018-11-10T20:21:44.897Z,98195.59
2018-11-10T20:24:14.963Z,98190.50
2018-11-10T20:26:45.141Z,98197.38
2018-11-10T20:29:14.774Z,98201.95
2018-11-10T20:31:43.948Z,98193.56
2018-11-10T20:34:13.398Z,98194.18
2018-11-10T20:36:42.894Z,98197.83
2018-11-10T20:39:12.359Z,98200.91
2018-11-10T20:41:42.506Z,98197.41
2018-11-10T20:44:11.843Z,98197.42
2018-11-10T20:46:41.694Z,98195.41
2018-11-10T20:49:10.911Z,98194.34
2018-11-10T20:51:40.269Z,98198.56
2018-11-10T20:54:09.522Z,98198.09
2018-11-10T20:56:38.143Z,98204.42
2018-11-10T20:59:07.313Z,98207.70
2018-11-10T21:01:36.409Z,98200.50
2018-11-10T21:04:09.893Z,98212.08
2018-11-10T21:06:39.706Z,98209.78
2018-11-10T21:09:10.649Z,98213.77
2018-11-10T21:11:39.588Z,98200.86
2018-11-10T21:14:09.917Z,98213.35
2018-11-10T21:16:39.443Z,98206.52
2018-11-10T21:19:08.516Z,98203.03
2018-11-10T21:21:39.368Z,98205.45
2018-11-10T21:24:08.838Z,98204.89
2018-11-10T21:26:38.131Z,98204.63
2018-11-10T21:29:07.174Z,98211.61
2018-11-10T21:31:36.745Z,98218.99
2018-11-10T21:34:05.813Z,98218.86
2018-11-10T21:36:36.128Z,98215.36
2018-11-10T21:39:07.074Z,98220.39
2018-11-10T21:41:37.386Z,98208.69
2018-11-10T21:44:07.457Z,98217.87
2018-11-10T21:46:37.418Z,98225.22
2018-11-10T21:49:06.618Z,98222.22
2018-11-10T21:51:35.279Z,98219.08
2018-11-10T21:54:05.178Z,98221.15
2018-11-10T21:56:34.388Z,98222.35
2018-11-10T21:59:04.456Z,98216.56
2018-11-10T22:01:33.748Z,98219.83
2018-11-10T22:04:04.106Z,98212.14
2018-11-10T22:06:33.293Z,98219.96
2018-11-10T22:09:02.375Z,98218.42
2018-11-10T22:11:33.083Z,98211.66
2018-11-10T22:14:03.395Z,98208.48
2018-11-10T22:16:32.452Z,98215.72
2018-11-10T22:19:02.286Z,98213.42
2018-11-10T22:21:31.620Z,98214.17
2018-11-10T22:24:11.744Z,98199.55
2018-11-10T22:26:42.024Z,98207.02
2018-11-10T22:29:29.984Z,98216.06
2018-11-10T22:35:10.580Z,98214.03
2018-11-10T22:37:39.624Z,98213.06
2018-11-10T22:40:17.125Z,98207.89
2018-11-10T22:42:51.007Z,98207.19
2018-11-10T22:45:22.753Z,98195.84
2018-11-10T22:47:57.530Z,98199.59
2018-11-10T22:50:28.010Z,98213.82
2018-11-10T22:52:57.857Z,98205.59
2018-11-10T22:55:28.826Z,98207.77
2018-11-10T22:57:58.093Z,98209.92
2018-11-10T23:00:35.753Z,98202.47
2018-11-10T23:03:22.423Z,98206.80
2018-11-10T23:08:32.772Z,98203.17
2018-11-10T23:11:02.198Z,98201.85
2018-11-10T23:13:41.882Z,98200.66
2018-11-10T23:16:10.975Z,98205.24
2018-11-10T23:18:40.166Z,98205.25
2018-11-10T23:21:09.088Z,98203.96
2018-11-10T23:23:39.345Z,98209.00
2018-11-10T23:26:08.104Z,98209.97
2018-11-10T23:28:38.048Z,98212.23
2018-11-10T23:31:07.777Z,98213.20
2018-11-10T23:33:37.797Z,98209.45
2018-11-10T23:36:07.497Z,98212.77
2018-11-10T23:38:38.189Z,98220.59
2018-11-10T23:41:07.106Z,98225.53
2018-11-10T23:43:37.673Z,98220.00
2018-11-10T23:46:08.358Z,98234.94
2018-11-10T23:48:43.592Z,98236.52
2018-11-10T23:51:14.119Z,98242.63
2018-11-10T23:53:43.736Z,98231.45
2018-11-10T23:56:13.431Z,98236.39
2018-11-10T23:58:42.794Z,98247.48
